Time;durP1;ratioP1;P1;durP2;ratioP2;P2;SDS_P1;SDS_P2;PMS_P1;PMS_P2;Temp;Humidity;BMP_temperature;BMP_pressure;BME280_temperature;BME280_humidity;BME280_pressure;Samples;Min_cycle;Max_cycle;Signal;HPM_P1;HPM_P2
2023/08/09 00:00:57;;;;;;;7.90;5.00;;;12.50;99.90;;;;;;5074080;28;20135;-79
2023/08/09 00:03:23;;;;;;;7.97;4.70;;;12.50;99.90;;;;;;5075165;28;20118;-79
2023/08/09 00:05:49;;;;;;;8.32;4.72;;;12.50;99.90;;;;;;5056484;28;20142;-79
2023/08/09 00:08:15;;;;;;;9.57;4.45;;;12.50;99.90;;;;;;5052394;28;20033;-79
2023/08/09 00:10:41;;;;;;;8.65;5.10;;;12.60;99.90;;;;;;5056942;28;20141;-79
2023/08/09 00:13:06;;;;;;;8.65;5.22;;;12.60;99.90;;;;;;5056733;28;20099;-79
2023/08/09 00:15:32;;;;;;;8.30;4.55;;;12.60;99.90;;;;;;5073264;28;20536;-79
2023/08/09 00:17:58;;;;;;;9.93;5.18;;;12.70;99.90;;;;;;5072817;28;20500;-79
2023/08/09 00:20:24;;;;;;;8.68;4.82;;;12.70;99.90;;;;;;5073082;28;20075;-79
2023/08/09 00:22:50;;;;;;;9.52;5.40;;;12.70;99.90;;;;;;5056490;28;20056;-80
2023/08/09 00:25:17;;;;;;;9.25;5.82;;;12.80;99.90;;;;;;5074135;28;20046;-79
2023/08/09 00:27:43;;;;;;;9.73;5.32;;;12.80;99.90;;;;;;5056673;28;20052;-78
2023/08/09 00:30:12;;;;;;;8.50;5.45;;;12.80;99.90;;;;;;5056782;28;20040;-79
2023/08/09 00:32:39;;;;;;;11.13;6.65;;;12.80;99.90;;;;;;5072913;28;20484;-78
2023/08/09 00:35:05;;;;;;;8.50;5.63;;;12.80;99.90;;;;;;5072433;28;20040;-80
2023/08/09 00:37:31;;;;;;;9.88;5.75;;;12.80;99.90;;;;;;5072272;28;20048;-79
2023/08/09 00:39:57;;;;;;;8.48;5.05;;;12.80;99.90;;;;;;5072748;28;20047;-78
2023/08/09 00:42:23;;;;;;;9.23;4.85;;;12.80;99.90;;;;;;5074318;28;20060;-78
2023/08/09 00:44:50;;;;;;;10.98;5.65;;;12.70;99.90;;;;;;5056551;28;20059;-78
2023/08/09 00:47:16;;;;;;;8.27;4.90;;;12.70;99.90;;;;;;5072205;28;20048;-80
2023/08/09 00:49:42;;;;;;;11.00;5.45;;;12.70;99.90;;;;;;5072709;28;20451;-79
2023/08/09 00:52:09;;;;;;;9.40;5.38;;;12.70;99.90;;;;;;5072544;28;20052;-78
2023/08/09 00:54:38;;;;;;;9.13;5.05;;;12.70;99.90;;;;;;5073758;28;20524;-79
2023/08/09 00:57:05;;;;;;;11.77;5.70;;;12.70;99.90;;;;;;5055928;28;20036;-78
2023/08/09 00:59:31;;;;;;;8.85;5.35;;;12.60;99.90;;;;;;5072433;28;20041;-79
2023/08/09 01:01:57;;;;;;;8.35;5.00;;;12.60;99.90;;;;;;5072523;28;20401;-79
2023/08/09 01:04:22;;;;;;;10.07;5.20;;;12.60;99.90;;;;;;5073204;28;20044;-79
2023/08/09 01:07:09;;;;;;;9.98;5.82;;;12.60;99.90;;;;;;5055476;28;20053;-79
2023/08/09 01:10:02;;;;;;;;;;;12.60;99.90;;;;;;5072636;28;20128;-79
2023/08/09 01:12:45;;;;;;;11.40;5.55;;;12.60;99.90;;;;;;5042023;28;19920;-79
2023/08/09 01:15:12;;;;;;;9.95;5.75;;;12.60;99.90;;;;;;5072113;28;20044;-78
2023/08/09 01:17:40;;;;;;;9.70;5.55;;;12.60;99.90;;;;;;5073078;28;20049;-78
2023/08/09 01:20:11;;;;;;;9.18;5.80;;;12.60;99.90;;;;;;5072267;28;20041;-78
2023/08/09 01:22:46;;;;;;;8.60;4.97;;;12.60;99.90;;;;;;5072258;28;20076;-78
2023/08/09 01:25:12;;;;;;;8.13;5.45;;;12.60;99.90;;;;;;5072296;28;20055;-78
2023/08/09 01:27:37;;;;;;;8.90;5.40;;;12.60;99.90;;;;;;5072064;28;20119;-80
2023/08/09 01:30:07;;;;;;;7.80;5.35;;;12.60;99.90;;;;;;5072384;28;20140;-79
2023/08/09 01:32:34;;;;;;;9.07;5.80;;;12.50;99.90;;;;;;5071813;28;20090;-79
2023/08/09 01:35:00;;;;;;;9.70;5.55;;;12.50;99.90;;;;;;5071905;28;20056;-79
2023/08/09 01:37:34;;;;;;;9.23;5.82;;;12.50;99.90;;;;;;5071333;28;20040;-78
2023/08/09 01:40:10;;;;;;;10.82;6.22;;;12.50;99.90;;;;;;5065017;28;20048;-79
2023/08/09 01:42:40;;;;;;;8.90;6.07;;;12.50;99.90;;;;;;5072002;28;20044;-79
2023/08/09 01:45:08;;;;;;;9.35;5.88;;;12.50;99.90;;;;;;5071917;28;20052;-78
2023/08/09 01:47:39;;;;;;;10.13;6.07;;;12.40;99.90;;;;;;5071183;28;20056;-79
2023/08/09 01:50:24;;;;;;;8.73;5.55;;;12.40;99.90;;;;;;5072644;28;20048;-79
2023/08/09 01:52:50;;;;;;;10.50;6.15;;;12.40;99.90;;;;;;5072635;28;20535;-79
2023/08/09 01:55:19;;;;;;;8.45;5.93;;;12.40;99.90;;;;;;5071775;28;20033;-79
2023/08/09 01:57:46;;;;;;;10.50;5.88;;;12.30;99.90;;;;;;5055061;28;20040;-79
2023/08/09 02:00:15;;;;;;;10.38;6.10;;;12.30;99.90;;;;;;5071737;28;20040;-78
2023/08/09 02:02:41;;;;;;;9.35;5.95;;;12.30;99.90;;;;;;5055901;28;20040;-79
2023/08/09 02:05:08;;;;;;;9.23;5.72;;;12.30;99.90;;;;;;5054979;28;20044;-81
2023/08/09 02:07:34;;;;;;;9.13;5.60;;;12.20;99.90;;;;;;5066555;28;20048;-81
2023/08/09 02:09:59;;;;;;;10.23;5.80;;;12.20;99.90;;;;;;5071603;28;20394;-79
2023/08/09 02:12:25;;;;;;;11.13;6.43;;;12.10;99.90;;;;;;5073054;28;20141;-79
2023/08/09 02:14:51;;;;;;;10.68;6.72;;;12.10;99.90;;;;;;5071267;28;20036;-79
2023/08/09 02:17:17;;;;;;;10.48;6.45;;;12.10;99.90;;;;;;5072686;28;20045;-79
2023/08/09 02:19:42;;;;;;;8.75;5.97;;;12.10;99.90;;;;;;5070959;28;20094;-81
2023/08/09 02:22:10;;;;;;;12.55;6.88;;;12.10;99.90;;;;;;5054727;28;20094;-80
2023/08/09 02:24:36;;;;;;;9.63;6.47;;;12.10;99.90;;;;;;5055128;28;20048;-79
2023/08/09 02:27:01;;;;;;;10.52;6.43;;;12.10;99.90;;;;;;5071395;28;20128;-79
2023/08/09 02:29:27;;;;;;;16.95;7.45;;;12.10;99.90;;;;;;5071862;28;20049;-80
2023/08/09 02:31:53;;;;;;;11.13;6.75;;;12.10;99.90;;;;;;5068681;28;20123;-80
2023/08/09 02:34:19;;;;;;;11.60;6.80;;;12.10;99.90;;;;;;5054564;28;20507;-80
2023/08/09 02:36:46;;;;;;;11.00;6.38;;;12.10;99.90;;;;;;5070879;28;20432;-79
2023/08/09 02:39:12;;;;;;;10.63;7.20;;;12.00;99.90;;;;;;5071504;28;20060;-79
2023/08/09 02:41:41;;;;;;;9.80;6.65;;;12.00;99.90;;;;;;5071058;28;20037;-79
2023/08/09 02:44:07;;;;;;;10.82;6.43;;;11.90;99.90;;;;;;5054970;28;20114;-80
2023/08/09 02:46:33;;;;;;;11.48;6.60;;;11.90;99.90;;;;;;5071973;28;20590;-79
2023/08/09 02:48:59;;;;;;;10.48;6.65;;;11.80;99.90;;;;;;5070902;28;20128;-79
2023/08/09 02:51:25;;;;;;;11.55;6.45;;;11.80;99.90;;;;;;5073591;28;20393;-80
2023/08/09 02:54:04;;;;;;;10.57;6.45;;;11.80;99.90;;;;;;5058398;28;20047;-80
2023/08/09 02:56:31;;;;;;;12.95;6.97;;;11.70;99.90;;;;;;5074968;28;20051;-80
2023/08/09 02:58:59;;;;;;;9.93;6.28;;;11.80;99.90;;;;;;5075114;28;20036;-80
2023/08/09 03:01:25;;;;;;;12.38;6.95;;;11.70;99.90;;;;;;5076165;28;20052;-80
2023/08/09 03:03:52;;;;;;;12.40;6.95;;;11.70;99.90;;;;;;5075840;28;20093;-80
2023/08/09 03:06:21;;;;;;;10.63;6.88;;;11.70;99.90;;;;;;5058124;28;20048;-79
2023/08/09 03:08:47;;;;;;;13.38;7.80;;;11.60;99.90;;;;;;5058198;28;20049;-80
2023/08/09 03:11:13;;;;;;;10.93;6.57;;;11.60;99.90;;;;;;5075216;28;20044;-80
2023/08/09 03:13:39;;;;;;;11.30;7.40;;;11.60;99.90;;;;;;5074697;28;20082;-80
2023/08/09 03:16:05;;;;;;;10.98;6.90;;;11.60;99.90;;;;;;5075745;28;20047;-80
2023/08/09 03:18:31;;;;;;;11.35;7.28;;;11.50;99.90;;;;;;5057689;28;20036;-80
2023/08/09 03:20:57;;;;;;;11.70;7.50;;;11.50;99.90;;;;;;5074723;28;20048;-79
2023/08/09 03:23:23;;;;;;;11.68;6.80;;;11.50;99.90;;;;;;5075573;28;20091;-80
2023/08/09 03:25:49;;;;;;;10.43;6.28;;;11.50;99.90;;;;;;5054774;28;20236;-80
2023/08/09 03:28:15;;;;;;;11.77;7.13;;;11.40;99.90;;;;;;5072772;28;20432;-80
2023/08/09 03:30:41;;;;;;;12.13;7.00;;;11.40;99.90;;;;;;5072582;28;20494;-80
2023/08/09 03:33:06;;;;;;;12.85;7.35;;;11.40;99.90;;;;;;5072916;28;20046;-80
2023/08/09 03:35:32;;;;;;;12.05;6.80;;;11.40;99.90;;;;;;5074246;28;20037;-80
2023/08/09 03:37:58;;;;;;;12.88;7.25;;;11.40;99.90;;;;;;5073597;28;20042;-79
2023/08/09 03:40:23;;;;;;;11.75;7.10;;;11.40;99.90;;;;;;5074074;28;20045;-79
2023/08/09 03:42:49;;;;;;;13.35;8.07;;;11.40;99.90;;;;;;5074636;28;20434;-79
2023/08/09 03:45:17;;;;;;;12.32;7.40;;;11.40;99.90;;;;;;5075398;28;20048;-80
2023/08/09 03:47:43;;;;;;;14.40;8.75;;;11.50;99.90;;;;;;5057480;28;20457;-79
2023/08/09 03:50:10;;;;;;;14.98;8.65;;;11.50;99.90;;;;;;5074079;28;20127;-80
2023/08/09 03:52:36;;;;;;;14.38;8.23;;;11.50;99.90;;;;;;5074281;28;20205;-80
2023/08/09 03:55:02;;;;;;;11.95;7.55;;;11.50;99.90;;;;;;5057475;28;20513;-79
2023/08/09 03:57:28;;;;;;;10.55;7.38;;;11.50;99.90;;;;;;5057378;28;20411;-80
2023/08/09 03:59:54;;;;;;;14.70;8.05;;;11.50;99.90;;;;;;5057757;28;20036;-80
2023/08/09 04:02:20;;;;;;;11.00;7.00;;;11.40;99.90;;;;;;5073299;28;20131;-80
2023/08/09 04:04:46;;;;;;;11.55;6.95;;;11.50;99.90;;;;;;5073910;28;20143;-79
2023/08/09 04:07:13;;;;;;;12.15;7.35;;;11.40;99.90;;;;;;5056268;28;20044;-79
2023/08/09 04:09:39;;;;;;;14.23;7.97;;;11.40;99.90;;;;;;5073024;28;20059;-79
2023/08/09 04:12:05;;;;;;;11.13;7.22;;;11.40;99.90;;;;;;5057091;28;20045;-79
2023/08/09 04:14:31;;;;;;;13.05;7.78;;;11.40;99.90;;;;;;5057107;28;20493;-79
2023/08/09 04:16:56;;;;;;;11.20;7.30;;;11.40;99.90;;;;;;5056723;28;20047;-80
2023/08/09 04:19:24;;;;;;;10.13;7.38;;;11.40;99.90;;;;;;5073299;28;20117;-79
2023/08/09 04:21:51;;;;;;;12.65;7.78;;;11.40;99.90;;;;;;5074168;28;20098;-79
2023/08/09 04:24:17;;;;;;;12.68;7.72;;;11.40;99.90;;;;;;5076096;28;20119;-79
2023/08/09 04:26:43;;;;;;;13.60;8.50;;;11.40;99.90;;;;;;5075192;28;20079;-80
2023/08/09 04:29:09;;;;;;;11.88;7.63;;;11.40;99.90;;;;;;5057810;28;20044;-80
2023/08/09 04:31:34;;;;;;;13.15;7.82;;;11.40;99.90;;;;;;5074792;28;20504;-79
2023/08/09 04:34:00;;;;;;;11.85;7.68;;;11.40;99.90;;;;;;5074229;28;20076;-79
2023/08/09 04:36:26;;;;;;;11.98;7.88;;;11.40;99.90;;;;;;5074052;28;20522;-80
2023/08/09 04:38:52;;;;;;;13.98;8.48;;;11.50;99.90;;;;;;5073474;28;20045;-79
2023/08/09 04:41:18;;;;;;;11.02;6.95;;;11.40;99.90;;;;;;5056601;28;20385;-79
2023/08/09 04:43:44;;;;;;;12.70;7.72;;;11.40;99.90;;;;;;5056658;28;20052;-80
2023/08/09 04:46:13;;;;;;;12.73;7.32;;;11.40;99.90;;;;;;5073115;28;20075;-80
2023/08/09 04:48:40;;;;;;;10.48;6.95;;;11.40;99.90;;;;;;5073359;28;20060;-80
2023/08/09 04:51:07;;;;;;;10.55;6.80;;;11.40;99.90;;;;;;5073259;28;20052;-81
2023/08/09 04:53:33;;;;;;;11.68;6.95;;;11.40;99.90;;;;;;5072936;28;20120;-80
2023/08/09 04:55:58;;;;;;;10.82;6.78;;;11.40;99.90;;;;;;5072934;28;20549;-80
2023/08/09 04:58:24;;;;;;;11.30;7.13;;;11.50;99.90;;;;;;5072985;28;20049;-79
2023/08/09 05:00:50;;;;;;;11.90;7.45;;;11.40;99.90;;;;;;5073566;28;20173;-79
2023/08/09 05:03:15;;;;;;;9.65;6.63;;;11.50;99.90;;;;;;5056210;28;20102;-80
2023/08/09 05:05:41;;;;;;;12.43;7.35;;;11.50;99.90;;;;;;5056355;28;20047;-78
2023/08/09 05:08:07;;;;;;;11.32;7.20;;;11.60;99.90;;;;;;5071884;28;20036;-79
2023/08/09 05:10:35;;;;;;;10.60;6.70;;;11.60;99.90;;;;;;5055773;28;20091;-79
2023/08/09 05:13:01;;;;;;;11.07;6.72;;;11.60;99.90;;;;;;5072035;28;20044;-80
2023/08/09 05:15:26;;;;;;;11.30;7.57;;;11.60;99.90;;;;;;5073366;28;20067;-79
2023/08/09 05:17:52;;;;;;;9.38;6.57;;;11.70;99.90;;;;;;5073787;28;20465;-79
2023/08/09 05:20:18;;;;;;;10.93;7.22;;;11.70;99.90;;;;;;5068822;28;20497;-80
2023/08/09 05:22:44;;;;;;;10.88;7.78;;;11.70;99.90;;;;;;5055837;28;20090;-79
2023/08/09 05:25:11;;;;;;;11.50;7.68;;;11.80;99.90;;;;;;5055628;28;20048;-79
2023/08/09 05:27:37;;;;;;;11.88;7.90;;;11.80;99.90;;;;;;5072007;28;20408;-80
2023/08/09 05:30:04;;;;;;;11.70;7.75;;;11.80;99.90;;;;;;5072173;28;20047;-80
2023/08/09 05:32:30;;;;;;;9.93;7.03;;;11.80;99.90;;;;;;5073610;28;20079;-79
2023/08/09 05:34:56;;;;;;;11.80;7.40;;;11.90;99.90;;;;;;5072418;28;20089;-79
2023/08/09 05:37:21;;;;;;;10.90;6.85;;;11.90;99.90;;;;;;5071099;28;20041;-79
2023/08/09 05:39:47;;;;;;;10.73;6.70;;;11.90;99.90;;;;;;5072482;28;20072;-80
2023/08/09 05:42:13;;;;;;;13.07;7.43;;;12.00;99.90;;;;;;5071890;28;20040;-79
2023/08/09 05:44:38;;;;;;;12.45;7.57;;;12.00;99.90;;;;;;5072858;28;20048;-79
2023/08/09 05:47:04;;;;;;;10.00;6.63;;;12.10;99.90;;;;;;5054213;28;20087;-79
2023/08/09 05:49:30;;;;;;;10.27;7.57;;;12.10;99.90;;;;;;5072651;28;20048;-79
2023/08/09 05:51:56;;;;;;;9.82;6.18;;;12.10;99.90;;;;;;5073159;28;20052;-79
2023/08/09 05:54:22;;;;;;;10.82;6.97;;;12.20;99.90;;;;;;5071968;28;20049;-80
2023/08/09 05:56:48;;;;;;;9.57;6.25;;;12.20;99.90;;;;;;5055498;28;20051;-79
2023/08/09 05:59:14;;;;;;;9.95;6.57;;;12.20;99.90;;;;;;5071878;28;20151;-79
2023/08/09 06:01:39;;;;;;;9.80;6.80;;;12.30;99.90;;;;;;5054514;28;20052;-79
2023/08/09 06:04:07;;;;;;;9.13;5.88;;;12.30;99.90;;;;;;5071716;28;20124;-79
2023/08/09 06:06:33;;;;;;;9.35;5.68;;;12.40;99.90;;;;;;5071776;28;20056;-78
2023/08/09 06:08:59;;;;;;;9.05;6.15;;;12.40;99.90;;;;;;5054470;28;20493;-79
2023/08/09 06:11:25;;;;;;;10.07;5.43;;;12.50;99.90;;;;;;5077404;28;20037;-80
2023/08/09 06:13:51;;;;;;;8.48;5.97;;;12.50;99.90;;;;;;5072916;28;20045;-72
2023/08/09 06:16:17;;;;;;;8.82;6.20;;;12.60;99.90;;;;;;5071507;28;20098;-71
2023/08/09 06:18:43;;;;;;;9.35;5.85;;;12.70;99.90;;;;;;5071038;28;20040;-72
2023/08/09 06:21:08;;;;;;;7.80;5.65;;;12.80;99.90;;;;;;5071351;28;20076;-72
2023/08/09 06:23:34;;;;;;;9.30;5.95;;;12.80;99.90;;;;;;5072152;28;20451;-73
2023/08/09 06:26:00;;;;;;;7.97;5.45;;;12.90;99.90;;;;;;5071097;28;20110;-71
2023/08/09 06:28:26;;;;;;;8.80;5.40;;;12.90;99.90;;;;;;5072259;28;20075;-72
2023/08/09 06:30:51;;;;;;;6.45;4.97;;;13.00;99.90;;;;;;5071338;28;20440;-71
2023/08/09 06:33:18;;;;;;;9.05;6.28;;;13.10;99.90;;;;;;5072125;28;20066;-72
2023/08/09 06:35:43;;;;;;;9.45;5.32;;;13.10;99.90;;;;;;5070782;28;20044;-72
2023/08/09 06:38:09;;;;;;;8.63;5.63;;;13.20;99.90;;;;;;5071667;28;20093;-72
2023/08/09 06:40:35;;;;;;;7.93;5.97;;;13.20;99.90;;;;;;5072496;28;20509;-72
2023/08/09 06:43:00;;;;;;;8.13;5.35;;;13.30;99.90;;;;;;5070585;28;20047;-73
2023/08/09 06:45:26;;;;;;;7.80;5.40;;;13.40;99.90;;;;;;5071070;28;20047;-71
2023/08/09 06:47:52;;;;;;;7.80;5.30;;;13.50;99.90;;;;;;5072023;28;20060;-72
2023/08/09 06:50:18;;;;;;;6.53;4.90;;;13.50;99.90;;;;;;5071260;28;20392;-72
2023/08/09 06:52:43;;;;;;;7.38;5.07;;;13.60;99.90;;;;;;5071086;28;20044;-73
2023/08/09 06:55:10;;;;;;;6.03;4.45;;;13.70;99.90;;;;;;5071070;28;20127;-73
2023/08/09 06:57:36;;;;;;;7.45;4.80;;;13.80;99.90;;;;;;5071035;28;20091;-71
2023/08/09 07:00:04;;;;;;;7.60;4.93;;;13.90;99.90;;;;;;5071505;28;20107;-72
2023/08/09 07:02:30;;;;;;;6.63;4.25;;;13.90;99.90;;;;;;5072101;28;20110;-71
2023/08/09 07:05:00;;;;;;;5.57;3.60;;;14.00;99.90;;;;;;5071415;28;20044;-71
2023/08/09 07:07:26;;;;;;;6.53;4.18;;;14.10;99.90;;;;;;5059274;28;20124;-74
2023/08/09 07:09:52;;;;;;;6.13;3.95;;;14.20;99.90;;;;;;5070391;28;20116;-74
2023/08/09 07:12:20;;;;;;;7.10;5.00;;;14.30;99.90;;;;;;5070268;28;20094;-74
2023/08/09 07:14:46;;;;;;;6.10;3.90;;;14.40;99.90;;;;;;5069115;28;20072;-73
2023/08/09 07:17:12;;;;;;;4.38;3.38;;;14.40;99.90;;;;;;5052011;28;20091;-74
2023/08/09 07:19:37;;;;;;;7.25;4.50;;;14.50;99.90;;;;;;5068924;28;20040;-73
2023/08/09 07:22:03;;;;;;;6.00;3.30;;;14.60;99.90;;;;;;5069415;28;20098;-73
2023/08/09 07:24:29;;;;;;;5.03;3.67;;;14.70;99.90;;;;;;5069101;28;20055;-74
2023/08/09 07:26:55;;;;;;;5.65;4.00;;;14.80;99.90;;;;;;5057466;28;20554;-72
2023/08/09 07:29:21;;;;;;;4.70;3.63;;;14.80;99.90;;;;;;5069269;28;20628;-73
2023/08/09 07:31:46;;;;;;;4.68;3.35;;;14.80;99.90;;;;;;5070287;28;20059;-74
2023/08/09 07:34:12;;;;;;;4.22;3.00;;;14.90;99.90;;;;;;5062990;28;20101;-74
2023/08/09 07:36:38;;;;;;;4.85;3.30;;;15.00;99.90;;;;;;5068753;28;20044;-75
2023/08/09 07:39:04;;;;;;;3.95;2.80;;;15.10;99.90;;;;;;5070865;28;20045;-73
2023/08/09 07:41:29;;;;;;;3.95;2.75;;;15.20;99.90;;;;;;5063628;28;20048;-75
2023/08/09 07:43:55;;;;;;;4.43;2.80;;;15.30;99.90;;;;;;5073674;28;20089;-75
2023/08/09 07:46:21;;;;;;;4.28;2.65;;;15.40;99.90;;;;;;5060426;28;20061;-73
2023/08/09 07:48:46;;;;;;;4.53;2.80;;;15.40;99.90;;;;;;5059259;28;20519;-75
2023/08/09 07:51:12;;;;;;;3.95;2.60;;;15.50;99.90;;;;;;5066753;28;20485;-78
2023/08/09 07:53:41;;;;;;;4.25;2.40;;;15.50;99.90;;;;;;5068489;28;20052;-74
2023/08/09 07:56:06;;;;;;;3.85;2.35;;;15.60;99.90;;;;;;5053388;28;20076;-74
2023/08/09 07:58:32;;;;;;;4.00;2.38;;;15.70;99.90;;;;;;5063686;28;20081;-73
2023/08/09 08:00:58;;;;;;;4.72;2.95;;;15.70;99.90;;;;;;5060999;28;20428;-76
2023/08/09 08:03:24;;;;;;;3.67;2.15;;;15.80;99.90;;;;;;5071304;28;20485;-73
2023/08/09 08:05:49;;;;;;;3.33;2.50;;;15.90;99.90;;;;;;5063306;28;20386;-75
2023/08/09 08:08:17;;;;;;;3.88;2.65;;;15.90;99.90;;;;;;5072991;28;20082;-73
2023/08/09 08:10:43;;;;;;;3.70;2.60;;;16.00;99.90;;;;;;5054916;28;20049;-73
2023/08/09 08:13:09;;;;;;;3.58;2.50;;;16.10;99.90;;;;;;5058000;28;20043;-74
2023/08/09 08:15:36;;;;;;;4.95;2.47;;;16.20;99.90;;;;;;5066301;28;20040;-73
2023/08/09 08:18:04;;;;;;;3.78;2.30;;;16.30;99.90;;;;;;5057252;28;20513;-75
2023/08/09 08:20:30;;;;;;;4.50;2.67;;;16.30;99.90;;;;;;5068329;28;20053;-74
2023/08/09 08:22:56;;;;;;;3.10;1.98;;;16.40;99.90;;;;;;5065428;28;20465;-72
2023/08/09 08:25:21;;;;;;;3.33;2.55;;;16.40;99.90;;;;;;5058506;28;20079;-72
2023/08/09 08:27:47;;;;;;;4.40;2.50;;;16.50;99.90;;;;;;5058690;28;20409;-73
2023/08/09 08:30:17;;;;;;;3.42;1.88;;;16.50;99.90;;;;;;5053432;28;20040;-73
2023/08/09 08:32:47;;;;;;;3.72;1.98;;;16.60;99.90;;;;;;5069060;28;20077;-73
2023/08/09 08:35:14;;;;;;;3.42;2.35;;;16.60;99.90;;;;;;5057875;28;20045;-73
2023/08/09 08:37:41;;;;;;;3.10;2.20;;;16.60;99.90;;;;;;5061744;28;20033;-71
2023/08/09 08:40:11;;;;;;;3.20;2.15;;;16.70;99.90;;;;;;5068937;28;20045;-74
2023/08/09 08:42:36;;;;;;;3.00;2.50;;;16.80;99.90;;;;;;5063020;28;20236;-77
2023/08/09 08:45:11;;;;;;;2.70;1.58;;;16.80;99.90;;;;;;5062432;28;20047;-72
2023/08/09 08:47:40;;;;;;;4.15;2.17;;;16.90;99.90;;;;;;5060504;28;20444;-73
2023/08/09 08:50:08;;;;;;;3.22;1.80;;;17.00;99.90;;;;;;5065726;28;20481;-72
2023/08/09 08:52:37;;;;;;;2.83;1.80;;;17.10;99.90;;;;;;5071448;28;20040;-73
2023/08/09 08:55:05;;;;;;;2.80;1.42;;;17.20;99.90;;;;;;5065256;28;20386;-72
2023/08/09 08:57:32;;;;;;;2.25;1.52;;;17.30;99.90;;;;;;5057166;28;20048;-76
2023/08/09 08:59:58;;;;;;;2.40;1.50;;;17.40;99.90;;;;;;5039563;28;20053;-72
2023/08/09 09:02:24;;;;;;;2.35;1.35;;;17.60;99.90;;;;;;5064699;28;20041;-73
2023/08/09 09:04:50;;;;;;;1.95;1.23;;;17.70;99.90;;;;;;5057576;28;20049;-72
2023/08/09 09:07:16;;;;;;;2.72;1.35;;;17.80;99.90;;;;;;5059290;28;20063;-76
2023/08/09 09:10:03;;;;;;;3.10;1.30;;;17.90;99.90;;;;;;5068588;28;20098;-72
2023/08/09 09:12:29;;;;;;;1.90;1.08;;;17.90;99.90;;;;;;5061570;28;20041;-74
2023/08/09 09:14:55;;;;;;;2.55;1.08;;;17.90;99.90;;;;;;5067779;28;20040;-74
2023/08/09 09:17:21;;;;;;;2.72;1.40;;;18.00;99.90;;;;;;5068900;28;20082;-74
2023/08/09 09:19:48;;;;;;;2.70;1.00;;;18.00;99.90;;;;;;5067835;28;20045;-71
2023/08/09 09:22:34;;;;;;;1.40;0.80;;;17.80;99.90;;;;;;5066653;28;20501;-72
2023/08/09 09:25:04;;;;;;;;;;;17.90;99.90;;;;;;5063387;28;20052;-72
2023/08/09 09:27:31;;;;;;;2.05;0.80;;;18.20;99.90;;;;;;5072603;28;20457;-71
2023/08/09 09:30:11;;;;;;;1.77;0.90;;;18.30;99.90;;;;;;5053867;28;20056;-73
2023/08/09 09:32:40;;;;;;;1.25;0.73;;;18.30;99.90;;;;;;5070141;28;20098;-72
2023/08/09 09:35:08;;;;;;;2.58;0.80;;;18.20;99.90;;;;;;5059702;28;20045;-73
2023/08/09 09:37:35;;;;;;;2.28;0.90;;;18.40;99.90;;;;;;5053636;28;20076;-73
2023/08/09 09:40:01;;;;;;;3.55;0.98;;;18.30;99.90;;;;;;5054493;28;20048;-73
2023/08/09 09:42:32;;;;;;;1.80;0.80;;;18.10;99.90;;;;;;5064709;28;20044;-73
2023/08/09 09:45:08;;;;;;;1.83;0.80;;;17.80;99.90;;;;;;5071467;28;20055;-72
2023/08/09 09:47:40;;;;;;;2.90;0.90;;;17.80;99.90;;;;;;5071929;28;20093;-71
2023/08/09 09:50:07;;;;;;;2.67;1.00;;;18.00;99.90;;;;;;5070803;28;20053;-73
2023/08/09 09:52:38;;;;;;;3.10;0.90;;;18.30;99.90;;;;;;5072202;28;20366;-73
2023/08/09 09:55:05;;;;;;;1.98;1.00;;;18.50;99.90;;;;;;5054577;28;20550;-73
2023/08/09 09:57:34;;;;;;;2.00;1.00;;;18.40;99.90;;;;;;5071343;28;20039;-75
2023/08/09 10:00:06;;;;;;;2.60;1.00;;;18.50;99.90;;;;;;5071712;28;20032;-74
2023/08/09 10:02:38;;;;;;;3.17;0.75;;;18.80;99.90;;;;;;5071870;28;20037;-72
2023/08/09 10:05:10;;;;;;;2.40;0.90;;;18.90;99.90;;;;;;5071658;28;20037;-71
2023/08/09 10:07:36;;;;;;;1.52;0.85;;;19.00;99.90;;;;;;5071590;28;20075;-72
2023/08/09 10:10:03;;;;;;;1.70;0.70;;;19.10;99.90;;;;;;5071928;28;20048;-72
2023/08/09 10:12:33;;;;;;;1.38;0.80;;;18.90;99.90;;;;;;5070829;28;20038;-71
2023/08/09 10:15:02;;;;;;;1.27;0.60;;;18.70;99.90;;;;;;5072107;28;20044;-72
2023/08/09 10:17:29;;;;;;;2.30;0.77;;;18.40;99.90;;;;;;5053579;28;20041;-71
2023/08/09 10:19:59;;;;;;;1.52;0.90;;;18.30;99.90;;;;;;5066662;28;20044;-73
2023/08/09 10:22:26;;;;;;;1.67;0.80;;;18.30;99.90;;;;;;5066438;28;20124;-71
2023/08/09 10:24:55;;;;;;;2.38;0.90;;;18.50;99.90;;;;;;5071684;28;20493;-73
2023/08/09 10:27:45;;;;;;;2.08;0.80;;;18.80;99.90;;;;;;5071566;28;20036;-72
2023/08/09 10:30:13;;;;;;;2.00;0.90;;;19.10;99.90;;;;;;5070561;28;20556;-72
2023/08/09 10:32:53;;;;;;;1.83;0.80;;;19.20;99.90;;;;;;5071260;28;20483;-72
2023/08/09 10:35:20;;;;;;;1.75;0.90;;;19.20;99.90;;;;;;5070223;28;20042;-77
2023/08/09 10:37:48;;;;;;;2.20;1.02;;;19.00;99.90;;;;;;5071198;28;20032;-72
2023/08/09 10:40:18;;;;;;;2.75;1.10;;;18.60;99.90;;;;;;5071580;28;20044;-72
2023/08/09 10:42:46;;;;;;;2.53;0.90;;;18.50;99.90;;;;;;5070177;28;20041;-73
2023/08/09 10:45:13;;;;;;;3.08;0.80;;;18.70;99.90;;;;;;5071455;28;20059;-72
2023/08/09 10:47:40;;;;;;;1.80;0.80;;;19.10;99.90;;;;;;5071163;28;20508;-71
2023/08/09 10:50:13;;;;;;;2.00;1.08;;;19.40;99.90;;;;;;5070874;28;20132;-71
2023/08/09 10:52:48;;;;;;;1.95;1.00;;;19.80;99.90;;;;;;5070572;28;20261;-71
2023/08/09 10:55:21;;;;;;;1.65;0.70;;;19.90;99.90;;;;;;5071223;28;20131;-70
2023/08/09 10:57:49;;;;;;;1.40;0.90;;;20.10;99.90;;;;;;5069989;28;20051;-71
2023/08/09 11:00:16;;;;;;;1.70;0.80;;;20.30;99.90;;;;;;5070646;28;20101;-71
2023/08/09 11:02:58;;;;;;;2.22;1.08;;;20.40;99.90;;;;;;5070708;28;20037;-71
2023/08/09 11:05:27;;;;;;;2.10;0.90;;;20.40;99.90;;;;;;5071091;28;20044;-71
2023/08/09 11:07:59;;;;;;;3.10;1.10;;;20.40;99.90;;;;;;5070682;28;20143;-71
2023/08/09 11:10:39;;;;;;;2.85;0.80;;;20.20;99.90;;;;;;5071117;28;20050;-71
2023/08/09 11:13:11;;;;;;;1.65;0.80;;;19.90;99.90;;;;;;5073488;28;20485;-71
2023/08/09 11:15:37;;;;;;;3.17;0.90;;;19.50;99.90;;;;;;5075375;28;20054;-72
2023/08/09 11:18:03;;;;;;;1.98;0.80;;;19.20;99.90;;;;;;5073006;28;20044;-74
2023/08/09 11:20:29;;;;;;;1.75;0.70;;;18.80;99.90;;;;;;5057320;28;20052;-70
2023/08/09 11:22:57;;;;;;;2.00;0.93;;;18.70;99.90;;;;;;5057381;28;20443;-71
2023/08/09 11:25:25;;;;;;;1.40;0.70;;;18.90;99.90;;;;;;5074706;28;20523;-71
2023/08/09 11:27:56;;;;;;;1.60;0.70;;;19.40;99.90;;;;;;5073597;28;20044;-70
2023/08/09 11:30:23;;;;;;;2.30;0.80;;;19.80;99.90;;;;;;5073878;28;20055;-70
2023/08/09 11:33:01;;;;;;;1.27;0.63;;;20.20;99.90;;;;;;5074300;28;20416;-70
2023/08/09 11:35:40;;;;;;;1.42;0.70;;;20.40;99.90;;;;;;5074620;28;20032;-72
2023/08/09 11:38:11;;;;;;;2.17;0.77;;;20.50;99.90;;;;;;5072681;28;20034;-72
2023/08/09 11:40:44;;;;;;;2.33;0.80;;;20.50;99.90;;;;;;5074727;28;20036;-73
2023/08/09 11:43:12;;;;;;;1.85;0.70;;;20.30;99.90;;;;;;5074547;28;20040;-72
2023/08/09 11:45:49;;;;;;;2.08;0.90;;;20.00;99.90;;;;;;5074425;28;20044;-73
2023/08/09 11:48:39;;;;;;;2.20;0.80;;;19.60;99.90;;;;;;5055586;28;20071;-72
2023/08/09 11:51:16;;;;;;;1.50;0.70;;;19.40;99.90;;;;;;5055968;28;20135;-71
2023/08/09 11:53:43;;;;;;;2.22;0.85;;;19.40;99.90;;;;;;5062511;28;20412;-72
2023/08/09 11:56:14;;;;;;;1.60;0.90;;;19.50;99.90;;;;;;5073971;28;20471;-76
2023/08/09 11:58:43;;;;;;;2.13;0.82;;;19.70;99.90;;;;;;5073154;28;20044;-72
2023/08/09 12:01:21;;;;;;;3.55;1.10;;;19.60;99.90;;;;;;5066093;28;20044;-73
2023/08/09 12:03:52;;;;;;;1.67;0.82;;;19.80;99.90;;;;;;5050302;28;20049;-69
2023/08/09 12:06:32;;;;;;;1.70;1.00;;;20.00;99.90;;;;;;5053557;28;20389;-70
2023/08/09 12:08:57;;;;;;;1.30;0.70;;;20.00;99.90;;;;;;5061368;28;20080;-69
2023/08/09 12:11:23;;;;;;;2.47;0.85;;;20.20;99.90;;;;;;5072807;28;20130;-70
2023/08/09 12:13:49;;;;;;;2.83;0.85;;;20.10;99.90;;;;;;5073060;28;20047;-71
2023/08/09 12:16:14;;;;;;;1.60;0.85;;;19.90;99.90;;;;;;5074026;28;20045;-71
2023/08/09 12:18:40;;;;;;;1.30;0.77;;;19.80;99.90;;;;;;5073529;28;20110;-70
2023/08/09 12:21:08;;;;;;;2.38;0.80;;;19.90;99.90;;;;;;5074061;28;20144;-71
2023/08/09 12:23:37;;;;;;;1.80;0.80;;;20.30;99.90;;;;;;5073242;28;20545;-70
2023/08/09 12:26:04;;;;;;;1.70;0.80;;;20.50;99.90;;;;;;5073558;28;20051;-71
2023/08/09 12:28:30;;;;;;;1.85;0.70;;;20.80;99.90;;;;;;5073025;28;20095;-71
2023/08/09 12:30:56;;;;;;;1.40;0.80;;;21.00;99.90;;;;;;5073921;28;20052;-71
2023/08/09 12:33:22;;;;;;;2.20;0.80;;;21.10;99.90;;;;;;5073294;28;20378;-70
2023/08/09 12:35:47;;;;;;;1.45;0.70;;;20.80;99.90;;;;;;5072578;28;20127;-70
2023/08/09 12:38:13;;;;;;;1.70;0.70;;;20.50;99.90;;;;;;5073117;28;20040;-70
2023/08/09 12:40:39;;;;;;;1.60;0.70;;;20.20;99.90;;;;;;5073590;28;20089;-70
2023/08/09 12:43:04;;;;;;;2.45;1.00;;;19.90;99.90;;;;;;5073834;28;20445;-71
2023/08/09 12:45:30;;;;;;;2.45;0.90;;;19.60;99.90;;;;;;5072729;28;20072;-70